createdAt,value
2023-04-14T00:00:04.699Z,99734.03
2023-04-14T00:02:40.506Z,99732.13
2023-04-14T00:05:09.748Z,99734.03
2023-04-14T00:07:37.498Z,99729.94
2023-04-14T00:10:05.700Z,99733.25
2023-04-14T00:12:33.474Z,99733.94
2023-04-14T00:15:01.185Z,99734.47
2023-04-14T00:17:32.011Z,99731.63
2023-04-14T00:19:59.868Z,99729.97
2023-04-14T00:22:28.585Z,99730.94
2023-04-14T00:24:57.189Z,99741.44
2023-04-14T00:27:24.927Z,99730.91
2023-04-14T00:29:53.611Z,99730.78
2023-04-14T00:32:21.813Z,99731.38
2023-04-14T00:34:50.945Z,99729.72
2023-04-14T00:37:18.826Z,99731.56
2023-04-14T00:39:46.743Z,99734.22
2023-04-14T00:42:14.421Z,99751.56
2023-04-14T00:44:42.158Z,99759.47
2023-04-14T00:47:10.843Z,99741.06
2023-04-14T00:49:38.720Z,99734.13
2023-04-14T00:52:08.926Z,99734.31
2023-04-14T00:54:38.706Z,99724.81
2023-04-14T00:57:07.432Z,99728.25
2023-04-14T01:00:18.737Z,99723.03
2023-04-14T01:02:48.685Z,99708.19
2023-04-14T01:05:17.665Z,99708.13
2023-04-14T01:07:49.405Z,99718.28
2023-04-14T01:10:17.837Z,99717.66
2023-04-14T01:13:14.633Z,99721.22
2023-04-14T01:15:48.579Z,99728.91
2023-04-14T01:18:22.960Z,99726.22
2023-04-14T01:20:57.561Z,99727.22
2023-04-14T01:23:28.407Z,99726.53
2023-04-14T01:26:19.440Z,99719.47
2023-04-14T01:29:31.465Z,99727.97
2023-04-14T01:32:05.496Z,99726.13
2023-04-14T01:34:40.440Z,99726.06
2023-04-14T01:37:12.629Z,99731.59
2023-04-14T01:39:43.615Z,99731.44
2023-04-14T01:42:16.674Z,99732.03
2023-04-14T01:44:46.316Z,99723.78
2023-04-14T01:47:19.025Z,99726.88
2023-04-14T01:49:51.531Z,99728.47
2023-04-14T01:52:20.697Z,99728.53
2023-04-14T01:54:52.032Z,99731.72
2023-04-14T01:57:22.814Z,99729.34
2023-04-14T01:59:53.058Z,99739.78
2023-04-14T02:02:25.279Z,99742.16
2023-04-14T02:04:55.692Z,99748.03
2023-04-14T02:07:24.744Z,99750.63
2023-04-14T02:09:54.965Z,99756.63
2023-04-14T02:12:25.500Z,99762.53
2023-04-14T02:14:55.636Z,99756.25
2023-04-14T02:17:25.976Z,99764.25
2023-04-14T02:19:55.602Z,99772.91
2023-04-14T02:22:23.312Z,99775.44
2023-04-14T02:24:51.379Z,99780.59
2023-04-14T02:27:30.040Z,99771.50
2023-04-14T02:30:06.499Z,99771.78
2023-04-14T02:32:36.477Z,99777.63
2023-04-14T02:35:12.191Z,99778.34
2023-04-14T02:37:42.935Z,99784.34
2023-04-14T02:40:16.642Z,99786.53
2023-04-14T02:42:49.065Z,99784.94
2023-04-14T02:45:23.293Z,99792.88
2023-04-14T02:47:57.852Z,99790.53
2023-04-14T02:50:28.106Z,99796.22
2023-04-14T02:53:08.365Z,99795.22
2023-04-14T02:55:38.796Z,99800.03
2023-04-14T02:58:07.373Z,99798.38
2023-04-14T03:00:41.075Z,99796.56
2023-04-14T03:03:11.386Z,99804.75
2023-04-14T03:05:40.705Z,99799.53
2023-04-14T03:08:12.555Z,99796.94
2023-04-14T03:10:46.028Z,99801.38
2023-04-14T03:13:16.373Z,99798.03
2023-04-14T03:15:46.448Z,99797.47
2023-04-14T03:18:18.839Z,99800.75
2023-04-14T03:20:48.805Z,99800.53
2023-04-14T03:23:22.026Z,99800.38
2023-04-14T03:25:59.489Z,99799.53
2023-04-14T03:28:31.797Z,99793.47
2023-04-14T03:31:03.799Z,99792.66
2023-04-14T03:33:43.942Z,99797.13
2023-04-14T03:36:16.087Z,99802.28
2023-04-14T03:38:46.725Z,99801.63
2023-04-14T03:41:15.655Z,99800.09
2023-04-14T03:43:43.812Z,99799.34
2023-04-14T03:46:15.375Z,99807.31
2023-04-14T03:48:48.849Z,99807.22
2023-04-14T03:51:18.380Z,99793.53
2023-04-14T03:53:48.012Z,99791.75
2023-04-14T03:56:18.752Z,99795.00
2023-04-14T03:58:49.324Z,99804.19
2023-04-14T04:01:19.319Z,99801.47
2023-04-14T04:03:49.716Z,99798.91
2023-04-14T04:06:18.384Z,99811.84
2023-04-14T04:08:48.800Z,99811.88
2023-04-14T04:11:18.835Z,99810.09
2023-04-14T04:13:49.581Z,99816.84
2023-04-14T04:16:18.536Z,99813.53
2023-04-14T04:18:51.440Z,99815.91
2023-04-14T04:21:28.143Z,99814.59
2023-04-14T04:23:58.731Z,99819.06
2023-04-14T04:26:27.838Z,99802.72
2023-04-14T04:28:57.941Z,99819.59
2023-04-14T04:31:29.325Z,99817.69
2023-04-14T04:33:59.134Z,99813.25
2023-04-14T04:36:29.117Z,99817.44
2023-04-14T04:38:57.618Z,99823.34
2023-04-14T04:41:29.348Z,99818.97
2023-04-14T04:44:00.006Z,99820.69
2023-04-14T04:46:45.601Z,99819.63
2023-04-14T04:49:16.617Z,99827.38
2023-04-14T04:51:45.205Z,99825.44
2023-04-14T04:54:12.964Z,99828.47
2023-04-14T04:56:41.077Z,99835.44
2023-04-14T04:59:09.984Z,99829.34
2023-04-14T05:01:37.825Z,99831.00
2023-04-14T05:04:06.853Z,99836.81
2023-04-14T05:06:38.057Z,99835.88
2023-04-14T05:09:06.560Z,99837.75
2023-04-14T05:11:34.935Z,99836.03
2023-04-14T05:14:03.201Z,99842.81
2023-04-14T05:16:32.036Z,99837.50
2023-04-14T05:19:00.781Z,99838.09
2023-04-14T05:21:29.177Z,99845.78
2023-04-14T05:23:58.528Z,99850.31
2023-04-14T05:26:48.674Z,99851.22
2023-04-14T05:29:14.521Z,99851.03
2023-04-14T05:31:42.403Z,99855.19
2023-04-14T05:34:10.118Z,99849.94
2023-04-14T05:36:37.785Z,99848.97
2023-04-14T05:39:06.782Z,99843.72
2023-04-14T05:41:34.689Z,99842.63
2023-04-14T05:44:03.804Z,99846.72
2023-04-14T05:46:31.929Z,99837.66
2023-04-14T05:49:01.533Z,99832.22
2023-04-14T05:51:30.323Z,99839.84
2023-04-14T05:53:58.458Z,99841.31
2023-04-14T05:56:28.399Z,99840.94
2023-04-14T05:58:56.645Z,99843.06
2023-04-14T06:01:24.300Z,99833.34
2023-04-14T06:03:52.393Z,99839.97
2023-04-14T06:06:20.679Z,99846.50
2023-04-14T06:08:48.532Z,99853.94
2023-04-14T06:11:16.258Z,99847.06
2023-04-14T06:13:45.934Z,99841.66
2023-04-14T06:16:13.908Z,99842.19
2023-04-14T06:18:42.539Z,99837.75
2023-04-14T06:21:10.496Z,99835.94
2023-04-14T06:23:38.230Z,99832.38
2023-04-14T06:26:06.876Z,99826.69
2023-04-14T06:28:34.988Z,99829.66
2023-04-14T06:31:04.790Z,99829.53
2023-04-14T06:33:33.204Z,99841.06
2023-04-14T06:36:03.363Z,99839.03
2023-04-14T06:38:31.143Z,99840.41
2023-04-14T06:40:59.156Z,99830.81
2023-04-14T06:43:28.784Z,99818.84
2023-04-14T06:45:56.815Z,99827.03
2023-04-14T06:48:27.323Z,99821.16
2023-04-14T06:50:55.990Z,99827.28
2023-04-14T06:53:24.139Z,99822.81
2023-04-14T06:55:58.890Z,99823.72
2023-04-14T06:58:27.702Z,99815.75
2023-04-14T07:00:57.403Z,99820.97
2023-04-14T07:03:27.712Z,99819.94
2023-04-14T07:05:55.965Z,99815.75
2023-04-14T07:08:23.837Z,99811.56
2023-04-14T07:10:59.957Z,99811.63
2023-04-14T07:13:28.419Z,99810.38
2023-04-14T07:15:56.378Z,99808.47
2023-04-14T07:18:25.934Z,99807.47
2023-04-14T07:20:54.125Z,99806.22
2023-04-14T07:23:22.681Z,99796.31
2023-04-14T07:25:52.524Z,99780.22
2023-04-14T07:28:20.528Z,99773.78
2023-04-14T07:30:48.501Z,99772.59
2023-04-14T07:33:18.832Z,99776.50
2023-04-14T07:36:00.660Z,99773.78
2023-04-14T07:38:30.684Z,99779.38
2023-04-14T07:40:58.447Z,99784.84
2023-04-14T07:43:26.417Z,99776.00
2023-04-14T07:45:54.324Z,99774.06
2023-04-14T07:48:22.506Z,99774.00
2023-04-14T07:50:51.821Z,99777.94
2023-04-14T07:53:19.923Z,99774.91
2023-04-14T07:55:47.838Z,99767.78
2023-04-14T07:58:16.272Z,99768.28
2023-04-14T08:00:44.391Z,99771.72
2023-04-14T08:03:13.431Z,99772.31
2023-04-14T08:05:42.184Z,99766.19
2023-04-14T08:08:12.333Z,99767.16
2023-04-14T08:10:40.003Z,99766.09
2023-04-14T08:13:09.749Z,99762.47
2023-04-14T08:15:37.679Z,99756.41
2023-04-14T08:18:06.092Z,99762.94
2023-04-14T08:20:33.971Z,99755.66
2023-04-14T08:23:01.893Z,99756.94
2023-04-14T08:25:31.346Z,99760.72
2023-04-14T08:27:58.957Z,99759.63
2023-04-14T08:30:27.188Z,99752.22
2023-04-14T08:32:56.998Z,99760.38
2023-04-14T08:35:39.582Z,99758.69
2023-04-14T08:38:09.696Z,99756.34
2023-04-14T08:40:40.765Z,99753.50
2023-04-14T08:43:08.825Z,99763.00
2023-04-14T08:45:37.698Z,99763.44
2023-04-14T08:48:06.445Z,99754.09
2023-04-14T08:50:38.163Z,99756.59
2023-04-14T08:53:09.824Z,99749.69
2023-04-14T08:55:41.660Z,99746.19
2023-04-14T08:58:11.357Z,99745.50
2023-04-14T09:00:40.532Z,99751.72
2023-04-14T09:03:09.469Z,99747.16
2023-04-14T09:05:38.232Z,99748.59
2023-04-14T09:08:06.246Z,99755.75
2023-04-14T09:10:35.704Z,99744.06
2023-04-14T09:13:06.590Z,99745.50
2023-04-14T09:15:34.416Z,99737.94
2023-04-14T09:18:02.520Z,99742.06
2023-04-14T09:20:37.370Z,99744.00
2023-04-14T09:23:09.383Z,99742.38
2023-04-14T09:25:39.469Z,99732.63
2023-04-14T09:28:08.821Z,99735.56
2023-04-14T09:30:36.685Z,99723.66
2023-04-14T09:33:08.882Z,99720.50
2023-04-14T09:35:48.584Z,99721.50
2023-04-14T09:38:17.760Z,99722.81
2023-04-14T09:40:45.878Z,99723.72
2023-04-14T09:43:30.479Z,99722.47
2023-04-14T09:45:59.028Z,99722.63
2023-04-14T09:48:26.812Z,99719.56
2023-04-14T09:51:00.203Z,99723.72
2023-04-14T09:53:30.110Z,99709.69
2023-04-14T09:55:59.646Z,99711.91
2023-04-14T09:58:32.803Z,99711.28
2023-04-14T10:01:00.748Z,99705.88
2023-04-14T10:03:37.427Z,99699.25
2023-04-14T10:06:09.892Z,99699.16
2023-04-14T10:08:39.748Z,99689.00
2023-04-14T10:11:18.778Z,99688.72
2023-04-14T10:13:49.259Z,99680.66
2023-04-14T10:16:17.524Z,99672.56
2023-04-14T10:18:45.690Z,99675.69
2023-04-14T10:21:14.348Z,99669.97
2023-04-14T10:23:42.716Z,99667.41
2023-04-14T10:26:12.201Z,99669.47
2023-04-14T10:28:41.831Z,99663.50
2023-04-14T10:31:15.968Z,99667.00
2023-04-14T10:33:44.133Z,99663.22
2023-04-14T10:36:12.097Z,99664.66
2023-04-14T10:38:42.242Z,99659.94
2023-04-14T10:41:10.597Z,99663.63
2023-04-14T10:43:38.681Z,99666.00
2023-04-14T10:46:07.950Z,99671.78
2023-04-14T10:48:39.560Z,99676.72
2023-04-14T10:51:10.542Z,99654.53
2023-04-14T10:53:40.842Z,99654.72
2023-04-14T10:56:08.772Z,99650.78
2023-04-14T10:58:37.627Z,99649.50
2023-04-14T11:01:30.905Z,99647.22
2023-04-14T11:04:17.679Z,99635.72
2023-04-14T11:06:57.063Z,99644.38
2023-04-14T11:09:34.263Z,99641.97
2023-04-14T11:12:07.523Z,99625.41
2023-04-14T11:14:36.989Z,99617.22
2023-04-14T11:17:06.155Z,99606.69
2023-04-14T11:19:35.790Z,99604.31
2023-04-14T11:22:03.736Z,99606.72
2023-04-14T11:24:32.316Z,99614.72
2023-04-14T11:27:00.207Z,99618.63
2023-04-14T11:29:28.341Z,99611.84
2023-04-14T11:32:06.963Z,99620.25
2023-04-14T11:34:35.989Z,99617.84
2023-04-14T11:37:04.970Z,99620.75
2023-04-14T11:39:33.027Z,99614.69
2023-04-14T11:42:01.167Z,99613.00
2023-04-14T11:44:30.325Z,99598.31
2023-04-14T11:46:58.301Z,99587.78
2023-04-14T11:49:37.838Z,99592.00
2023-04-14T11:52:07.160Z,99592.69
2023-04-14T11:54:39.215Z,99575.78
2023-04-14T11:57:11.568Z,99558.63
2023-04-14T11:59:43.891Z,99548.00
2023-04-14T12:02:22.027Z,99542.09
2023-04-14T12:04:53.070Z,99536.38
2023-04-14T12:07:23.485Z,99521.38
2023-04-14T12:09:51.644Z,99512.69
2023-04-14T12:12:20.041Z,99518.03
2023-04-14T12:14:50.236Z,99505.81
2023-04-14T12:17:20.258Z,99505.53
2023-04-14T12:19:49.044Z,99501.28
2023-04-14T12:22:26.381Z,99502.13
2023-04-14T12:24:54.519Z,99496.09
2023-04-14T12:27:24.566Z,99487.91
2023-04-14T12:29:52.884Z,99495.59
2023-04-14T12:32:22.035Z,99479.72
2023-04-14T12:34:58.464Z,99479.47
2023-04-14T12:37:29.687Z,99476.78
2023-04-14T12:40:00.313Z,99470.28
2023-04-14T12:42:29.621Z,99474.16
2023-04-14T12:44:58.814Z,99481.22
2023-04-14T12:47:32.015Z,99461.69
2023-04-14T12:50:02.332Z,99463.13
2023-04-14T12:52:42.020Z,99451.81
2023-04-14T12:55:21.166Z,99442.09
2023-04-14T12:57:52.152Z,99439.88
2023-04-14T13:00:20.990Z,99437.53
2023-04-14T13:02:49.964Z,99434.31
2023-04-14T13:05:18.299Z,99426.59
2023-04-14T13:07:47.890Z,99433.69
2023-04-14T13:10:15.956Z,99424.16
2023-04-14T13:12:44.275Z,99427.22
2023-04-14T13:15:28.019Z,99416.97
2023-04-14T13:18:01.431Z,99421.63
2023-04-14T13:20:30.963Z,99418.94
2023-04-14T13:23:00.622Z,99412.25
2023-04-14T13:25:28.377Z,99418.25
2023-04-14T13:27:56.352Z,99424.50
2023-04-14T13:30:23.961Z,99405.59
2023-04-14T13:32:53.012Z,99405.59
2023-04-14T13:35:20.720Z,99400.03
2023-04-14T13:37:48.421Z,99405.25
2023-04-14T13:40:18.210Z,99403.53
2023-04-14T13:42:45.897Z,99409.88
2023-04-14T13:45:13.779Z,99400.50
2023-04-14T13:47:41.756Z,99401.94
2023-04-14T13:50:10.225Z,99404.56
2023-04-14T13:52:38.538Z,99396.88
2023-04-14T13:55:07.076Z,99397.66
2023-04-14T13:57:36.337Z,99398.38
2023-04-14T14:00:09.292Z,99382.03
2023-04-14T14:02:39.430Z,99382.63
2023-04-14T14:05:09.168Z,99375.38
2023-04-14T14:07:37.818Z,99379.22
2023-04-14T14:10:09.209Z,99377.47
2023-04-14T14:12:38.564Z,99377.72
2023-04-14T14:15:07.929Z,99371.69
2023-04-14T14:17:36.759Z,99375.63
2023-04-14T14:20:05.060Z,99375.56
2023-04-14T14:22:32.838Z,99370.97
2023-04-14T14:25:15.142Z,99374.13
2023-04-14T14:27:48.355Z,99373.44
2023-04-14T14:30:16.205Z,99365.88
2023-04-14T14:32:44.053Z,99369.28
2023-04-14T14:35:12.319Z,99370.38
2023-04-14T14:37:42.086Z,99370.72
2023-04-14T14:40:11.397Z,99359.00
2023-04-14T14:42:39.269Z,99371.22
2023-04-14T14:45:10.340Z,99373.41
2023-04-14T14:47:39.039Z,99370.19
2023-04-14T14:50:09.275Z,99362.47
2023-04-14T14:52:37.459Z,99356.56
2023-04-14T14:55:06.745Z,99361.81
2023-04-14T14:57:36.020Z,99356.84
2023-04-14T15:00:07.861Z,99354.31
2023-04-14T15:02:38.544Z,99359.22
2023-04-14T15:05:08.142Z,99362.44
2023-04-14T15:07:36.268Z,99367.56
2023-04-14T15:10:05.546Z,99363.38
2023-04-14T15:12:33.465Z,99361.97
2023-04-14T15:15:01.716Z,99360.19
2023-04-14T15:17:29.604Z,99363.75
2023-04-14T15:20:03.532Z,99360.06
2023-04-14T15:22:32.144Z,99358.59
2023-04-14T15:25:00.839Z,99356.94
2023-04-14T15:27:28.805Z,99364.59
2023-04-14T15:29:57.544Z,99362.06
2023-04-14T15:32:26.761Z,99363.16
2023-04-14T15:34:55.910Z,99358.47
2023-04-14T15:37:26.140Z,99367.44
2023-04-14T15:39:54.126Z,99366.09
2023-04-14T15:42:22.013Z,99367.19
2023-04-14T15:44:50.897Z,99367.19
2023-04-14T15:47:19.379Z,99366.00
2023-04-14T15:49:52.380Z,99375.91
2023-04-14T15:52:36.388Z,99374.13
2023-04-14T15:55:04.660Z,99372.19
2023-04-14T15:57:32.441Z,99375.53
2023-04-14T16:00:02.151Z,99364.09
2023-04-14T16:02:42.101Z,99370.38
2023-04-14T16:05:10.871Z,99379.16
2023-04-14T16:07:40.199Z,99378.69
2023-04-14T16:10:08.866Z,99380.38
2023-04-14T16:12:37.726Z,99380.72
2023-04-14T16:15:08.086Z,99387.13
2023-04-14T16:17:36.337Z,99392.78
2023-04-14T16:20:05.661Z,99395.72
2023-04-14T16:22:34.113Z,99394.34
2023-04-14T16:25:04.426Z,99392.13
2023-04-14T16:27:32.455Z,99395.69
2023-04-14T16:30:00.434Z,99392.13
2023-04-14T16:32:28.301Z,99396.94
2023-04-14T16:34:56.745Z,99400.97
2023-04-14T16:37:26.237Z,99399.59
2023-04-14T16:39:54.917Z,99404.78
2023-04-14T16:42:25.067Z,99402.72
2023-04-14T16:44:53.091Z,99404.25
2023-04-14T16:47:21.820Z,99402.16
2023-04-14T16:49:50.289Z,99398.72
2023-04-14T16:52:18.353Z,99405.47
2023-04-14T16:54:46.660Z,99394.63
2023-04-14T16:57:15.406Z,99389.31
2023-04-14T16:59:46.145Z,99400.91
2023-04-14T17:02:14.016Z,99394.66
2023-04-14T17:04:42.346Z,99400.91
2023-04-14T17:07:10.336Z,99403.44
2023-04-14T17:09:38.015Z,99403.16
2023-04-14T17:12:06.100Z,99402.44
2023-04-14T17:14:35.584Z,99397.53
2023-04-14T17:17:04.751Z,99404.19
2023-04-14T17:19:32.945Z,99409.94
2023-04-14T17:22:00.668Z,99411.28
2023-04-14T17:24:28.308Z,99409.81
2023-04-14T17:26:57.118Z,99408.84
2023-04-14T17:29:25.628Z,99416.13
2023-04-14T17:31:54.452Z,99416.44
2023-04-14T17:34:24.110Z,99418.50
2023-04-14T17:36:51.976Z,99414.81
2023-04-14T17:39:21.450Z,99417.72
2023-04-14T17:41:49.410Z,99416.53
2023-04-14T17:44:17.366Z,99429.22
2023-04-14T17:46:46.373Z,99420.94
2023-04-14T17:49:14.107Z,99415.81
2023-04-14T17:51:43.700Z,99423.28
2023-04-14T17:54:11.687Z,99416.16
2023-04-14T17:56:39.833Z,99413.84
2023-04-14T17:59:07.669Z,99421.25
2023-04-14T18:01:35.676Z,99418.28
2023-04-14T18:04:04.491Z,99425.53
2023-04-14T18:06:33.608Z,99426.13
2023-04-14T18:09:03.810Z,99424.34
2023-04-14T18:11:32.511Z,99422.19
2023-04-14T18:14:01.342Z,99422.66
2023-04-14T18:16:30.207Z,99425.91
2023-04-14T18:18:59.288Z,99428.44
2023-04-14T18:21:29.312Z,99428.06
2023-04-14T18:26:32.000Z,99434.78
2023-04-14T18:29:00.945Z,99434.25
2023-04-14T18:31:31.557Z,99441.47
2023-04-14T18:34:04.386Z,99440.34
2023-04-14T18:36:33.569Z,99437.84
2023-04-14T18:39:04.568Z,99450.19
2023-04-14T18:41:34.177Z,99446.66
2023-04-14T18:44:04.573Z,99447.78
2023-04-14T18:46:33.236Z,99447.91
2023-04-14T18:49:01.884Z,99448.94
2023-04-14T18:51:31.476Z,99445.50
2023-04-14T18:56:28.243Z,99450.31
2023-04-14T18:58:57.688Z,99443.41
2023-04-14T19:01:26.016Z,99446.47
2023-04-14T19:03:56.746Z,99448.66
2023-04-14T19:06:26.384Z,99448.91
2023-04-14T19:08:54.502Z,99454.38
2023-04-14T19:11:22.469Z,99456.16
2023-04-14T19:13:51.794Z,99459.00
2023-04-14T19:16:22.621Z,99467.97
2023-04-14T19:18:50.548Z,99472.97
2023-04-14T19:21:19.422Z,99475.69
2023-04-14T19:23:47.745Z,99478.03
2023-04-14T19:26:16.267Z,99473.81
2023-04-14T19:28:45.892Z,99476.34
2023-04-14T19:31:14.090Z,99481.13
2023-04-14T19:33:44.019Z,99477.94
2023-04-14T19:36:13.155Z,99472.66
2023-04-14T19:38:41.487Z,99481.38
2023-04-14T19:41:09.749Z,99488.44
2023-04-14T19:43:38.452Z,99484.69
2023-04-14T19:46:08.134Z,99481.94
2023-04-14T19:48:36.568Z,99483.03
2023-04-14T19:51:06.142Z,99477.00
2023-04-14T19:53:35.102Z,99477.97
2023-04-14T19:56:05.527Z,99481.84
2023-04-14T19:58:34.211Z,99477.72
2023-04-14T20:01:02.375Z,99478.56
2023-04-14T20:03:33.094Z,99476.81
2023-04-14T20:06:03.235Z,99478.63
2023-04-14T20:08:32.442Z,99482.75
2023-04-14T20:11:00.772Z,99481.34
2023-04-14T20:13:31.151Z,99484.16
2023-04-14T20:15:59.164Z,99485.50
2023-04-14T20:18:28.885Z,99481.38
2023-04-14T20:20:57.036Z,99480.72
2023-04-14T20:23:24.791Z,99475.28
2023-04-14T20:25:56.080Z,99475.88
2023-04-14T20:28:26.214Z,99474.44
2023-04-14T20:30:55.932Z,99482.59
2023-04-14T20:33:25.115Z,99477.88
2023-04-14T20:35:53.945Z,99476.72
2023-04-14T20:38:22.477Z,99478.72
2023-04-14T20:40:51.122Z,99479.16
2023-04-14T20:43:20.822Z,99481.41
2023-04-14T20:45:52.422Z,99478.66
2023-04-14T20:48:20.579Z,99482.94
2023-04-14T20:50:50.053Z,99481.16
2023-04-14T20:53:20.059Z,99481.31
2023-04-14T20:55:48.143Z,99484.53
2023-04-14T20:58:16.109Z,99485.69
2023-04-14T21:00:45.655Z,99480.63
2023-04-14T21:03:13.596Z,99484.84
2023-04-14T21:05:42.121Z,99486.28
2023-04-14T21:08:10.491Z,99477.53
2023-04-14T21:11:02.196Z,99483.56
2023-04-14T21:15:29.993Z,99479.94
2023-04-14T21:16:18.033Z,99484.13
2023-04-14T21:18:46.102Z,99488.47
2023-04-14T21:21:14.070Z,99478.94
2023-04-14T21:23:42.531Z,99480.78
2023-04-14T21:26:10.653Z,99482.72
2023-04-14T21:28:38.576Z,99480.19
2023-04-14T21:31:07.777Z,99483.78
2023-04-14T21:33:39.283Z,99481.94
2023-04-14T21:36:07.414Z,99484.16
2023-04-14T21:38:35.166Z,99491.22
2023-04-14T21:41:02.827Z,99485.28
2023-04-14T21:43:31.631Z,99493.81
2023-04-14T21:45:59.499Z,99497.22
2023-04-14T21:48:27.686Z,99494.91
2023-04-14T21:50:57.002Z,99504.47
2023-04-14T21:53:24.784Z,99494.41
2023-04-14T21:56:09.105Z,99499.84
2023-04-14T21:58:38.370Z,99500.75
2023-04-14T22:01:07.017Z,99499.44
2023-04-14T22:03:37.183Z,99497.41
2023-04-14T22:06:07.253Z,99492.59
2023-04-14T22:08:35.040Z,99503.84
2023-04-14T22:11:02.785Z,99505.50
2023-04-14T22:13:30.460Z,99510.03
2023-04-14T22:15:58.158Z,99497.16
2023-04-14T22:18:27.644Z,99504.63
2023-04-14T22:20:55.996Z,99501.00
2023-04-14T22:23:25.987Z,99503.75
2023-04-14T22:25:53.792Z,99504.72
2023-04-14T22:28:21.554Z,99504.72
2023-04-14T22:30:49.675Z,99513.66
2023-04-14T22:33:17.427Z,99507.72
2023-04-14T22:35:45.617Z,99515.91
2023-04-14T22:38:13.736Z,99520.88
2023-04-14T22:40:42.877Z,99522.81
2023-04-14T22:43:10.938Z,99514.38
2023-04-14T22:45:39.863Z,99512.53
2023-04-14T22:48:08.787Z,99512.19
2023-04-14T22:50:37.234Z,99506.34
2023-04-14T22:53:05.729Z,99511.59
2023-04-14T22:55:33.441Z,99521.22
2023-04-14T22:58:02.774Z,99508.81
2023-04-14T23:00:30.536Z,99513.84
2023-04-14T23:02:59.258Z,99514.69
2023-04-14T23:05:27.352Z,99513.44
2023-04-14T23:07:55.227Z,99517.78
2023-04-14T23:10:22.923Z,99520.06
2023-04-14T23:12:52.096Z,99518.41
2023-04-14T23:15:28.654Z,99516.38
2023-04-14T23:17:56.842Z,99515.38
2023-04-14T23:20:24.762Z,99520.88
2023-04-14T23:22:52.573Z,99525.69
2023-04-14T23:25:20.180Z,99527.19
2023-04-14T23:27:47.882Z,99527.50
2023-04-14T23:30:15.669Z,99518.44
2023-04-14T23:32:45.337Z,99520.25
2023-04-14T23:35:13.338Z,99523.47
2023-04-14T23:37:41.458Z,99521.69
2023-04-14T23:40:10.679Z,99520.13
2023-04-14T23:42:39.827Z,99517.78
2023-04-14T23:45:09.642Z,99513.06
2023-04-14T23:47:37.801Z,99516.19
2023-04-14T23:50:08.874Z,99520.44
2023-04-14T23:52:37.001Z,99531.16
2023-04-14T23:55:05.606Z,99530.88
2023-04-14T23:57:34.185Z,99538.53
